sensor_id;sensor_type;location;lat;lon;timestamp;P1;durP1;ratioP1;P2;durP2;ratioP2
59922;SDS011;45778;51.142;3.732;2023-01-19T00:01:14;11.05;;;8.13;;
59922;SDS011;45778;51.142;3.732;2023-01-19T00:03:40;13.38;;;7.65;;
59922;SDS011;45778;51.142;3.732;2023-01-19T00:06:06;14.50;;;7.25;;
59922;SDS011;45778;51.142;3.732;2023-01-19T00:08:32;12.05;;;7.40;;
59922;SDS011;45778;51.142;3.732;2023-01-19T00:10:59;12.75;;;7.53;;
59922;SDS011;45778;51.142;3.732;2023-01-19T00:13:26;11.10;;;7.78;;
59922;SDS011;45778;51.142;3.732;2023-01-19T00:15:52;13.85;;;6.53;;
59922;SDS011;45778;51.142;3.732;2023-01-19T00:18:19;14.88;;;6.95;;
59922;SDS011;45778;51.142;3.732;2023-01-19T00:20:45;15.60;;;7.95;;
59922;SDS011;45778;51.142;3.732;2023-01-19T00:23:12;10.82;;;7.55;;
59922;SDS011;45778;51.142;3.732;2023-01-19T00:25:38;13.65;;;8.18;;
59922;SDS011;45778;51.142;3.732;2023-01-19T00:28:09;15.27;;;8.18;;
59922;SDS011;45778;51.142;3.732;2023-01-19T00:30:36;16.10;;;7.40;;
59922;SDS011;45778;51.142;3.732;2023-01-19T00:33:03;13.02;;;7.85;;
59922;SDS011;45778;51.142;3.732;2023-01-19T00:35:29;11.68;;;7.22;;
59922;SDS011;45778;51.142;3.732;2023-01-19T00:37:55;13.18;;;7.18;;
59922;SDS011;45778;51.142;3.732;2023-01-19T00:40:22;11.95;;;6.82;;
59922;SDS011;45778;51.142;3.732;2023-01-19T00:42:47;12.75;;;8.48;;
59922;SDS011;45778;51.142;3.732;2023-01-19T00:45:14;11.98;;;7.32;;
59922;SDS011;45778;51.142;3.732;2023-01-19T00:47:45;17.20;;;8.10;;
59922;SDS011;45778;51.142;3.732;2023-01-19T00:50:12;12.05;;;7.30;;
59922;SDS011;45778;51.142;3.732;2023-01-19T00:52:41;11.98;;;7.40;;
59922;SDS011;45778;51.142;3.732;2023-01-19T00:55:08;11.38;;;6.28;;
59922;SDS011;45778;51.142;3.732;2023-01-19T00:57:35;11.30;;;6.65;;
59922;SDS011;45778;51.142;3.732;2023-01-19T01:00:03;10.98;;;5.93;;
59922;SDS011;45778;51.142;3.732;2023-01-19T01:02:30;18.27;;;6.80;;
59922;SDS011;45778;51.142;3.732;2023-01-19T01:04:56;15.15;;;7.65;;
59922;SDS011;45778;51.142;3.732;2023-01-19T01:07:22;11.55;;;7.32;;
59922;SDS011;45778;51.142;3.732;2023-01-19T01:09:49;12.98;;;7.43;;
59922;SDS011;45778;51.142;3.732;2023-01-19T01:12:15;8.65;;;4.05;;
59922;SDS011;45778;51.142;3.732;2023-01-19T01:14:41;13.02;;;5.88;;
59922;SDS011;45778;51.142;3.732;2023-01-19T01:17:07;12.45;;;6.03;;
59922;SDS011;45778;51.142;3.732;2023-01-19T01:19:36;13.13;;;6.70;;
59922;SDS011;45778;51.142;3.732;2023-01-19T01:22:02;11.77;;;6.47;;
59922;SDS011;45778;51.142;3.732;2023-01-19T01:24:28;12.38;;;6.90;;
59922;SDS011;45778;51.142;3.732;2023-01-19T01:26:54;12.50;;;6.30;;
59922;SDS011;45778;51.142;3.732;2023-01-19T01:29:20;15.68;;;7.15;;
59922;SDS011;45778;51.142;3.732;2023-01-19T01:31:46;16.73;;;6.32;;
59922;SDS011;45778;51.142;3.732;2023-01-19T01:34:11;11.25;;;7.13;;
59922;SDS011;45778;51.142;3.732;2023-01-19T01:36:37;14.80;;;6.57;;
59922;SDS011;45778;51.142;3.732;2023-01-19T01:39:03;15.70;;;7.18;;
59922;SDS011;45778;51.142;3.732;2023-01-19T01:41:29;15.15;;;7.10;;
59922;SDS011;45778;51.142;3.732;2023-01-19T01:43:56;12.85;;;7.13;;
59922;SDS011;45778;51.142;3.732;2023-01-19T01:46:23;14.60;;;6.72;;
59922;SDS011;45778;51.142;3.732;2023-01-19T01:49:12;14.00;;;6.90;;
59922;SDS011;45778;51.142;3.732;2023-01-19T01:51:40;19.05;;;6.97;;
59922;SDS011;45778;51.142;3.732;2023-01-19T01:56:49;12.07;;;7.63;;
59922;SDS011;45778;51.142;3.732;2023-01-19T01:59:21;13.10;;;7.40;;
59922;SDS011;45778;51.142;3.732;2023-01-19T02:01:58;10.70;;;6.13;;
59922;SDS011;45778;51.142;3.732;2023-01-19T02:04:46;9.27;;;5.50;;
59922;SDS011;45778;51.142;3.732;2023-01-19T02:07:16;11.90;;;6.03;;
59922;SDS011;45778;51.142;3.732;2023-01-19T02:10:07;13.82;;;5.85;;
59922;SDS011;45778;51.142;3.732;2023-01-19T02:12:51;15.13;;;4.95;;
59922;SDS011;45778;51.142;3.732;2023-01-19T02:15:36;10.43;;;5.47;;
59922;SDS011;45778;51.142;3.732;2023-01-19T02:18:02;12.80;;;6.78;;
59922;SDS011;45778;51.142;3.732;2023-01-19T02:20:28;10.65;;;5.90;;
59922;SDS011;45778;51.142;3.732;2023-01-19T02:23:00;11.95;;;6.85;;
59922;SDS011;45778;51.142;3.732;2023-01-19T02:25:29;13.00;;;6.13;;
59922;SDS011;45778;51.142;3.732;2023-01-19T02:27:56;13.10;;;6.80;;
59922;SDS011;45778;51.142;3.732;2023-01-19T02:30:21;15.65;;;6.85;;
59922;SDS011;45778;51.142;3.732;2023-01-19T02:32:48;15.85;;;7.10;;
59922;SDS011;45778;51.142;3.732;2023-01-19T02:35:14;17.48;;;7.05;;
59922;SDS011;45778;51.142;3.732;2023-01-19T02:37:39;13.02;;;7.47;;
59922;SDS011;45778;51.142;3.732;2023-01-19T02:40:10;14.02;;;6.80;;
59922;SDS011;45778;51.142;3.732;2023-01-19T02:42:42;16.63;;;8.10;;
59922;SDS011;45778;51.142;3.732;2023-01-19T02:47:42;21.98;;;8.07;;
59922;SDS011;45778;51.142;3.732;2023-01-19T03:06:48;13.90;;;6.38;;
59922;SDS011;45778;51.142;3.732;2023-01-19T03:11:58;0.00;;;0.00;;
59922;SDS011;45778;51.142;3.732;2023-01-19T03:14:33;0.13;;;0.13;;
59922;SDS011;45778;51.142;3.732;2023-01-19T03:17:05;0.00;;;0.00;;
59922;SDS011;45778;51.142;3.732;2023-01-19T03:19:38;0.00;;;0.00;;
59922;SDS011;45778;51.142;3.732;2023-01-19T03:22:07;0.80;;;0.80;;
59922;SDS011;45778;51.142;3.732;2023-01-19T03:24:46;0.00;;;0.00;;
59922;SDS011;45778;51.142;3.732;2023-01-19T03:27:15;0.00;;;0.00;;
59922;SDS011;45778;51.142;3.732;2023-01-19T03:29:52;0.00;;;0.00;;
59922;SDS011;45778;51.142;3.732;2023-01-19T03:32:24;0.03;;;0.03;;
59922;SDS011;45778;51.142;3.732;2023-01-19T03:34:55;2.50;;;2.35;;
59922;SDS011;45778;51.142;3.732;2023-01-19T03:37:25;0.00;;;0.00;;
59922;SDS011;45778;51.142;3.732;2023-01-19T03:39:53;2.78;;;2.53;;
59922;SDS011;45778;51.142;3.732;2023-01-19T03:42:20;0.00;;;0.00;;
59922;SDS011;45778;51.142;3.732;2023-01-19T03:44:48;0.40;;;0.40;;
59922;SDS011;45778;51.142;3.732;2023-01-19T03:47:16;0.00;;;0.00;;
59922;SDS011;45778;51.142;3.732;2023-01-19T03:49:44;0.22;;;0.22;;
59922;SDS011;45778;51.142;3.732;2023-01-19T03:52:11;0.45;;;0.45;;
59922;SDS011;45778;51.142;3.732;2023-01-19T03:54:37;3.42;;;1.75;;
59922;SDS011;45778;51.142;3.732;2023-01-19T03:57:03;0.00;;;0.00;;
59922;SDS011;45778;51.142;3.732;2023-01-19T03:59:29;1.17;;;1.17;;
59922;SDS011;45778;51.142;3.732;2023-01-19T04:01:54;0.00;;;0.00;;
59922;SDS011;45778;51.142;3.732;2023-01-19T04:04:20;0.00;;;0.00;;
59922;SDS011;45778;51.142;3.732;2023-01-19T04:06:46;0.00;;;0.00;;
59922;SDS011;45778;51.142;3.732;2023-01-19T04:09:11;0.00;;;0.00;;
59922;SDS011;45778;51.142;3.732;2023-01-19T04:11:37;0.00;;;0.00;;
59922;SDS011;45778;51.142;3.732;2023-01-19T04:14:03;0.00;;;0.00;;
59922;SDS011;45778;51.142;3.732;2023-01-19T04:16:29;0.25;;;0.25;;
59922;SDS011;45778;51.142;3.732;2023-01-19T04:18:54;0.10;;;0.10;;
59922;SDS011;45778;51.142;3.732;2023-01-19T04:21:21;0.00;;;0.00;;
59922;SDS011;45778;51.142;3.732;2023-01-19T04:23:46;0.55;;;0.55;;
59922;SDS011;45778;51.142;3.732;2023-01-19T04:26:13;0.00;;;0.00;;
59922;SDS011;45778;51.142;3.732;2023-01-19T04:28:39;0.00;;;0.00;;
59922;SDS011;45778;51.142;3.732;2023-01-19T04:31:06;0.00;;;0.00;;
59922;SDS011;45778;51.142;3.732;2023-01-19T04:33:32;0.00;;;0.00;;
59922;SDS011;45778;51.142;3.732;2023-01-19T04:35:58;0.00;;;0.00;;
59922;SDS011;45778;51.142;3.732;2023-01-19T04:38:24;1.27;;;1.08;;
59922;SDS011;45778;51.142;3.732;2023-01-19T04:40:50;0.93;;;0.85;;
59922;SDS011;45778;51.142;3.732;2023-01-19T04:43:17;0.00;;;0.00;;
59922;SDS011;45778;51.142;3.732;2023-01-19T04:45:46;0.10;;;0.10;;
59922;SDS011;45778;51.142;3.732;2023-01-19T04:48:13;0.00;;;0.00;;
59922;SDS011;45778;51.142;3.732;2023-01-19T04:50:39;0.00;;;0.00;;
59922;SDS011;45778;51.142;3.732;2023-01-19T04:53:08;0.00;;;0.00;;
59922;SDS011;45778;51.142;3.732;2023-01-19T04:55:35;0.00;;;0.00;;
59922;SDS011;45778;51.142;3.732;2023-01-19T04:58:02;0.25;;;0.25;;
59922;SDS011;45778;51.142;3.732;2023-01-19T05:00:27;0.00;;;0.00;;
59922;SDS011;45778;51.142;3.732;2023-01-19T05:02:53;0.00;;;0.00;;
59922;SDS011;45778;51.142;3.732;2023-01-19T05:05:19;0.35;;;0.35;;
59922;SDS011;45778;51.142;3.732;2023-01-19T05:07:45;0.00;;;0.00;;
59922;SDS011;45778;51.142;3.732;2023-01-19T05:10:11;0.00;;;0.00;;
59922;SDS011;45778;51.142;3.732;2023-01-19T05:12:37;0.55;;;0.55;;
59922;SDS011;45778;51.142;3.732;2023-01-19T05:15:03;0.00;;;0.00;;
59922;SDS011;45778;51.142;3.732;2023-01-19T05:17:29;0.00;;;0.00;;
59922;SDS011;45778;51.142;3.732;2023-01-19T05:19:54;0.10;;;0.10;;
59922;SDS011;45778;51.142;3.732;2023-01-19T05:22:20;0.00;;;0.00;;
59922;SDS011;45778;51.142;3.732;2023-01-19T05:24:46;0.00;;;0.00;;
59922;SDS011;45778;51.142;3.732;2023-01-19T05:27:12;0.05;;;0.05;;
59922;SDS011;45778;51.142;3.732;2023-01-19T05:29:37;0.00;;;0.00;;
59922;SDS011;45778;51.142;3.732;2023-01-19T05:32:03;0.00;;;0.00;;
59922;SDS011;45778;51.142;3.732;2023-01-19T05:34:29;1.55;;;1.02;;
59922;SDS011;45778;51.142;3.732;2023-01-19T05:36:55;11.20;;;2.13;;
59922;SDS011;45778;51.142;3.732;2023-01-19T05:39:21;0.03;;;0.03;;
59922;SDS011;45778;51.142;3.732;2023-01-19T05:41:46;0.10;;;0.10;;
59922;SDS011;45778;51.142;3.732;2023-01-19T05:44:12;0.00;;;0.00;;
59922;SDS011;45778;51.142;3.732;2023-01-19T05:46:38;0.08;;;0.08;;
59922;SDS011;45778;51.142;3.732;2023-01-19T05:49:05;0.20;;;0.20;;
59922;SDS011;45778;51.142;3.732;2023-01-19T05:51:31;0.20;;;0.20;;
59922;SDS011;45778;51.142;3.732;2023-01-19T05:54:02;0.00;;;0.00;;
59922;SDS011;45778;51.142;3.732;2023-01-19T05:56:32;0.00;;;0.00;;
59922;SDS011;45778;51.142;3.732;2023-01-19T05:58:58;0.00;;;0.00;;
59922;SDS011;45778;51.142;3.732;2023-01-19T06:01:24;0.20;;;0.20;;
59922;SDS011;45778;51.142;3.732;2023-01-19T06:03:50;0.00;;;0.00;;
59922;SDS011;45778;51.142;3.732;2023-01-19T06:06:16;0.22;;;0.22;;
59922;SDS011;45778;51.142;3.732;2023-01-19T06:08:42;1.08;;;1.05;;
59922;SDS011;45778;51.142;3.732;2023-01-19T06:11:09;0.20;;;0.20;;
59922;SDS011;45778;51.142;3.732;2023-01-19T06:13:34;0.00;;;0.00;;
59922;SDS011;45778;51.142;3.732;2023-01-19T06:16:01;0.20;;;0.20;;
59922;SDS011;45778;51.142;3.732;2023-01-19T06:18:28;0.75;;;0.75;;
59922;SDS011;45778;51.142;3.732;2023-01-19T06:20:53;1.23;;;1.13;;
59922;SDS011;45778;51.142;3.732;2023-01-19T06:23:29;0.00;;;0.00;;
59922;SDS011;45778;51.142;3.732;2023-01-19T06:28:21;0.00;;;0.00;;
59922;SDS011;45778;51.142;3.732;2023-01-19T06:30:48;0.00;;;0.00;;
59922;SDS011;45778;51.142;3.732;2023-01-19T06:33:15;1.45;;;0.90;;
59922;SDS011;45778;51.142;3.732;2023-01-19T06:35:45;0.10;;;0.10;;
59922;SDS011;45778;51.142;3.732;2023-01-19T06:38:11;0.00;;;0.00;;
59922;SDS011;45778;51.142;3.732;2023-01-19T06:40:38;4.68;;;3.53;;
59922;SDS011;45778;51.142;3.732;2023-01-19T06:43:04;0.03;;;0.03;;
59922;SDS011;45778;51.142;3.732;2023-01-19T06:45:30;0.88;;;0.88;;
59922;SDS011;45778;51.142;3.732;2023-01-19T06:47:56;0.00;;;0.00;;
59922;SDS011;45778;51.142;3.732;2023-01-19T06:50:22;0.00;;;0.00;;
59922;SDS011;45778;51.142;3.732;2023-01-19T06:52:48;0.20;;;0.20;;
59922;SDS011;45778;51.142;3.732;2023-01-19T06:55:15;0.10;;;0.10;;
59922;SDS011;45778;51.142;3.732;2023-01-19T06:57:40;0.00;;;0.00;;
59922;SDS011;45778;51.142;3.732;2023-01-19T07:00:06;0.00;;;0.00;;
59922;SDS011;45778;51.142;3.732;2023-01-19T07:02:33;0.00;;;0.00;;
59922;SDS011;45778;51.142;3.732;2023-01-19T07:04:59;0.00;;;0.00;;
59922;SDS011;45778;51.142;3.732;2023-01-19T07:07:25;0.25;;;0.25;;
59922;SDS011;45778;51.142;3.732;2023-01-19T07:09:51;0.82;;;0.82;;
59922;SDS011;45778;51.142;3.732;2023-01-19T07:12:17;0.00;;;0.00;;
59922;SDS011;45778;51.142;3.732;2023-01-19T07:14:43;2.08;;;1.35;;
59922;SDS011;45778;51.142;3.732;2023-01-19T07:17:09;0.00;;;0.00;;
59922;SDS011;45778;51.142;3.732;2023-01-19T07:19:36;0.52;;;0.52;;
59922;SDS011;45778;51.142;3.732;2023-01-19T07:22:02;0.00;;;0.00;;
59922;SDS011;45778;51.142;3.732;2023-01-19T07:24:27;0.85;;;0.35;;
59922;SDS011;45778;51.142;3.732;2023-01-19T07:26:54;0.05;;;0.05;;
59922;SDS011;45778;51.142;3.732;2023-01-19T07:29:20;0.00;;;0.00;;
59922;SDS011;45778;51.142;3.732;2023-01-19T07:31:46;0.00;;;0.00;;
59922;SDS011;45778;51.142;3.732;2023-01-19T07:34:13;0.00;;;0.00;;
59922;SDS011;45778;51.142;3.732;2023-01-19T07:36:39;5.78;;;4.28;;
59922;SDS011;45778;51.142;3.732;2023-01-19T07:39:04;0.10;;;0.10;;
59922;SDS011;45778;51.142;3.732;2023-01-19T07:41:30;1.13;;;0.63;;
59922;SDS011;45778;51.142;3.732;2023-01-19T07:43:56;0.00;;;0.00;;
59922;SDS011;45778;51.142;3.732;2023-01-19T07:46:22;0.63;;;0.63;;
59922;SDS011;45778;51.142;3.732;2023-01-19T07:48:48;0.00;;;0.00;;
59922;SDS011;45778;51.142;3.732;2023-01-19T07:51:14;0.10;;;0.10;;
59922;SDS011;45778;51.142;3.732;2023-01-19T07:53:48;0.00;;;0.00;;
59922;SDS011;45778;51.142;3.732;2023-01-19T07:56:14;0.10;;;0.10;;
59922;SDS011;45778;51.142;3.732;2023-01-19T07:58:40;0.17;;;0.17;;
59922;SDS011;45778;51.142;3.732;2023-01-19T08:01:07;0.00;;;0.00;;
59922;SDS011;45778;51.142;3.732;2023-01-19T08:03:34;0.00;;;0.00;;
59922;SDS011;45778;51.142;3.732;2023-01-19T08:06:00;0.00;;;0.00;;
59922;SDS011;45778;51.142;3.732;2023-01-19T08:08:28;0.17;;;0.17;;
59922;SDS011;45778;51.142;3.732;2023-01-19T08:10:54;0.15;;;0.15;;
59922;SDS011;45778;51.142;3.732;2023-01-19T08:13:20;0.00;;;0.00;;
59922;SDS011;45778;51.142;3.732;2023-01-19T08:15:49;0.20;;;0.20;;
59922;SDS011;45778;51.142;3.732;2023-01-19T08:18:16;0.00;;;0.00;;
59922;SDS011;45778;51.142;3.732;2023-01-19T08:20:42;0.00;;;0.00;;
59922;SDS011;45778;51.142;3.732;2023-01-19T08:23:08;0.00;;;0.00;;
59922;SDS011;45778;51.142;3.732;2023-01-19T08:25:35;0.10;;;0.10;;
59922;SDS011;45778;51.142;3.732;2023-01-19T08:28:02;0.90;;;0.90;;
59922;SDS011;45778;51.142;3.732;2023-01-19T08:30:29;0.00;;;0.00;;
59922;SDS011;45778;51.142;3.732;2023-01-19T08:32:55;0.00;;;0.00;;
59922;SDS011;45778;51.142;3.732;2023-01-19T08:35:27;0.00;;;0.00;;
59922;SDS011;45778;51.142;3.732;2023-01-19T08:38:03;0.55;;;0.55;;
59922;SDS011;45778;51.142;3.732;2023-01-19T08:40:31;0.40;;;0.40;;
59922;SDS011;45778;51.142;3.732;2023-01-19T08:42:59;0.10;;;0.10;;
59922;SDS011;45778;51.142;3.732;2023-01-19T08:45:28;0.00;;;0.00;;
59922;SDS011;45778;51.142;3.732;2023-01-19T08:47:55;0.22;;;0.22;;
59922;SDS011;45778;51.142;3.732;2023-01-19T08:50:23;0.13;;;0.13;;
59922;SDS011;45778;51.142;3.732;2023-01-19T08:52:50;0.00;;;0.00;;
59922;SDS011;45778;51.142;3.732;2023-01-19T08:55:16;0.00;;;0.00;;
59922;SDS011;45778;51.142;3.732;2023-01-19T08:57:41;0.00;;;0.00;;
59922;SDS011;45778;51.142;3.732;2023-01-19T09:00:07;0.00;;;0.00;;
59922;SDS011;45778;51.142;3.732;2023-01-19T09:02:35;0.00;;;0.00;;
59922;SDS011;45778;51.142;3.732;2023-01-19T09:05:01;0.00;;;0.00;;
59922;SDS011;45778;51.142;3.732;2023-01-19T09:07:28;0.05;;;0.05;;
59922;SDS011;45778;51.142;3.732;2023-01-19T09:09:54;0.00;;;0.00;;
59922;SDS011;45778;51.142;3.732;2023-01-19T09:12:20;0.10;;;0.10;;
59922;SDS011;45778;51.142;3.732;2023-01-19T09:14:46;0.00;;;0.00;;
59922;SDS011;45778;51.142;3.732;2023-01-19T09:17:12;0.00;;;0.00;;
59922;SDS011;45778;51.142;3.732;2023-01-19T09:19:39;0.00;;;0.00;;
59922;SDS011;45778;51.142;3.732;2023-01-19T09:22:05;1.95;;;1.75;;
59922;SDS011;45778;51.142;3.732;2023-01-19T09:24:31;0.00;;;0.00;;
59922;SDS011;45778;51.142;3.732;2023-01-19T09:26:59;0.00;;;0.00;;
59922;SDS011;45778;51.142;3.732;2023-01-19T09:29:25;0.00;;;0.00;;
59922;SDS011;45778;51.142;3.732;2023-01-19T09:31:50;3.20;;;2.05;;
59922;SDS011;45778;51.142;3.732;2023-01-19T09:34:16;0.28;;;0.28;;
59922;SDS011;45778;51.142;3.732;2023-01-19T09:36:42;0.43;;;0.43;;
59922;SDS011;45778;51.142;3.732;2023-01-19T09:39:07;0.00;;;0.00;;
59922;SDS011;45778;51.142;3.732;2023-01-19T09:41:35;0.00;;;0.00;;
59922;SDS011;45778;51.142;3.732;2023-01-19T09:44:04;0.30;;;0.30;;
59922;SDS011;45778;51.142;3.732;2023-01-19T09:46:36;2.28;;;1.20;;
59922;SDS011;45778;51.142;3.732;2023-01-19T09:49:17;0.10;;;0.10;;
59922;SDS011;45778;51.142;3.732;2023-01-19T09:51:50;0.00;;;0.00;;
59922;SDS011;45778;51.142;3.732;2023-01-19T09:54:17;0.00;;;0.00;;
59922;SDS011;45778;51.142;3.732;2023-01-19T09:56:46;0.00;;;0.00;;
59922;SDS011;45778;51.142;3.732;2023-01-19T09:59:27;0.30;;;0.30;;
59922;SDS011;45778;51.142;3.732;2023-01-19T10:12:14;0.52;;;0.30;;
59922;SDS011;45778;51.142;3.732;2023-01-19T10:20:27;0.25;;;0.25;;
59922;SDS011;45778;51.142;3.732;2023-01-19T10:22:57;0.00;;;0.00;;
59922;SDS011;45778;51.142;3.732;2023-01-19T10:25:24;0.00;;;0.00;;
59922;SDS011;45778;51.142;3.732;2023-01-19T10:27:51;0.00;;;0.00;;
59922;SDS011;45778;51.142;3.732;2023-01-19T10:30:21;0.03;;;0.03;;
59922;SDS011;45778;51.142;3.732;2023-01-19T10:32:49;10.03;;;2.33;;
59922;SDS011;45778;51.142;3.732;2023-01-19T10:35:17;0.00;;;0.00;;
59922;SDS011;45778;51.142;3.732;2023-01-19T10:37:48;1.40;;;1.30;;
59922;SDS011;45778;51.142;3.732;2023-01-19T10:40:58;0.00;;;0.00;;
59922;SDS011;45778;51.142;3.732;2023-01-19T10:46:04;1.17;;;0.57;;
59922;SDS011;45778;51.142;3.732;2023-01-19T10:48:51;0.52;;;0.52;;
59922;SDS011;45778;51.142;3.732;2023-01-19T10:51:18;1.55;;;1.45;;
59922;SDS011;45778;51.142;3.732;2023-01-19T10:53:54;3.30;;;1.67;;
59922;SDS011;45778;51.142;3.732;2023-01-19T10:56:24;0.93;;;0.65;;
59922;SDS011;45778;51.142;3.732;2023-01-19T10:58:52;0.43;;;0.43;;
59922;SDS011;45778;51.142;3.732;2023-01-19T11:01:22;0.55;;;0.25;;
59922;SDS011;45778;51.142;3.732;2023-01-19T11:03:50;0.00;;;0.00;;
59922;SDS011;45778;51.142;3.732;2023-01-19T11:06:18;0.52;;;0.52;;
59922;SDS011;45778;51.142;3.732;2023-01-19T11:08:45;0.00;;;0.00;;
59922;SDS011;45778;51.142;3.732;2023-01-19T11:11:12;0.00;;;0.00;;
59922;SDS011;45778;51.142;3.732;2023-01-19T11:13:38;0.00;;;0.00;;
59922;SDS011;45778;51.142;3.732;2023-01-19T11:18:51;0.00;;;0.00;;
59922;SDS011;45778;51.142;3.732;2023-01-19T11:21:21;0.88;;;0.88;;
59922;SDS011;45778;51.142;3.732;2023-01-19T11:23:50;0.60;;;0.60;;
59922;SDS011;45778;51.142;3.732;2023-01-19T11:26:33;2.22;;;1.10;;
59922;SDS011;45778;51.142;3.732;2023-01-19T11:29:20;0.35;;;0.30;;
59922;SDS011;45778;51.142;3.732;2023-01-19T11:31:48;0.00;;;0.00;;
59922;SDS011;45778;51.142;3.732;2023-01-19T11:34:22;0.00;;;0.00;;
59922;SDS011;45778;51.142;3.732;2023-01-19T11:37:03;0.17;;;0.17;;
59922;SDS011;45778;51.142;3.732;2023-01-19T11:39:30;0.40;;;0.40;;
59922;SDS011;45778;51.142;3.732;2023-01-19T11:42:09;1.80;;;1.60;;
59922;SDS011;45778;51.142;3.732;2023-01-19T11:44:45;0.13;;;0.13;;
59922;SDS011;45778;51.142;3.732;2023-01-19T11:52:54;2.45;;;1.23;;
59922;SDS011;45778;51.142;3.732;2023-01-19T11:55:39;0.30;;;0.30;;
59922;SDS011;45778;51.142;3.732;2023-01-19T11:58:22;0.22;;;0.22;;
59922;SDS011;45778;51.142;3.732;2023-01-19T12:00:59;0.10;;;0.10;;
59922;SDS011;45778;51.142;3.732;2023-01-19T12:03:37;0.52;;;0.52;;
59922;SDS011;45778;51.142;3.732;2023-01-19T12:06:14;0.00;;;0.00;;
59922;SDS011;45778;51.142;3.732;2023-01-19T12:08:46;1.48;;;1.42;;
59922;SDS011;45778;51.142;3.732;2023-01-19T12:11:21;0.00;;;0.00;;
59922;SDS011;45778;51.142;3.732;2023-01-19T12:13:55;0.00;;;0.00;;
59922;SDS011;45778;51.142;3.732;2023-01-19T12:16:24;15.57;;;2.38;;
59922;SDS011;45778;51.142;3.732;2023-01-19T12:18:54;0.47;;;0.47;;
59922;SDS011;45778;51.142;3.732;2023-01-19T12:21:25;0.28;;;0.28;;
59922;SDS011;45778;51.142;3.732;2023-01-19T12:27:03;1.35;;;1.23;;
59922;SDS011;45778;51.142;3.732;2023-01-19T12:29:23;0.45;;;0.45;;
59922;SDS011;45778;51.142;3.732;2023-01-19T12:34:42;0.00;;;0.00;;
59922;SDS011;45778;51.142;3.732;2023-01-19T12:40:22;1.35;;;1.25;;
59922;SDS011;45778;51.142;3.732;2023-01-19T12:43:02;0.30;;;0.30;;
59922;SDS011;45778;51.142;3.732;2023-01-19T12:45:32;0.25;;;0.25;;
59922;SDS011;45778;51.142;3.732;2023-01-19T12:48:04;0.00;;;0.00;;
59922;SDS011;45778;51.142;3.732;2023-01-19T12:50:36;0.10;;;0.10;;
59922;SDS011;45778;51.142;3.732;2023-01-19T12:53:03;1.77;;;1.48;;
59922;SDS011;45778;51.142;3.732;2023-01-19T12:55:39;0.00;;;0.00;;
59922;SDS011;45778;51.142;3.732;2023-01-19T12:58:16;1.77;;;1.63;;
59922;SDS011;45778;51.142;3.732;2023-01-19T13:00:47;0.73;;;0.73;;
59922;SDS011;45778;51.142;3.732;2023-01-19T13:13:37;0.20;;;0.20;;
59922;SDS011;45778;51.142;3.732;2023-01-19T13:21:26;0.52;;;0.52;;
59922;SDS011;45778;51.142;3.732;2023-01-19T13:23:55;0.55;;;0.55;;
59922;SDS011;45778;51.142;3.732;2023-01-19T13:26:23;0.65;;;0.65;;
59922;SDS011;45778;51.142;3.732;2023-01-19T13:28:54;2.20;;;1.98;;
59922;SDS011;45778;51.142;3.732;2023-01-19T13:31:22;1.05;;;1.05;;
59922;SDS011;45778;51.142;3.732;2023-01-19T13:33:53;0.22;;;0.22;;
59922;SDS011;45778;51.142;3.732;2023-01-19T13:39:11;0.17;;;0.17;;
59922;SDS011;45778;51.142;3.732;2023-01-19T13:41:40;7.88;;;2.45;;
59922;SDS011;45778;51.142;3.732;2023-01-19T13:44:41;0.28;;;0.28;;
59922;SDS011;45778;51.142;3.732;2023-01-19T13:47:03;0.75;;;0.75;;
59922;SDS011;45778;51.142;3.732;2023-01-19T13:49:32;0.57;;;0.57;;
59922;SDS011;45778;51.142;3.732;2023-01-19T13:52:10;0.30;;;0.30;;
59922;SDS011;45778;51.142;3.732;2023-01-19T13:57:24;0.17;;;0.17;;
59922;SDS011;45778;51.142;3.732;2023-01-19T14:02:50;3.28;;;3.00;;
59922;SDS011;45778;51.142;3.732;2023-01-19T14:05:21;0.63;;;0.50;;
59922;SDS011;45778;51.142;3.732;2023-01-19T14:07:58;0.00;;;0.00;;
59922;SDS011;45778;51.142;3.732;2023-01-19T14:10:24;1.25;;;1.25;;
59922;SDS011;45778;51.142;3.732;2023-01-19T14:13:00;0.40;;;0.40;;
59922;SDS011;45778;51.142;3.732;2023-01-19T14:15:29;0.47;;;0.47;;
59922;SDS011;45778;51.142;3.732;2023-01-19T14:20:38;1.30;;;1.20;;
59922;SDS011;45778;51.142;3.732;2023-01-19T14:23:04;0.00;;;0.00;;
59922;SDS011;45778;51.142;3.732;2023-01-19T14:25:32;0.05;;;0.05;;
59922;SDS011;45778;51.142;3.732;2023-01-19T14:31:36;0.00;;;0.00;;
59922;SDS011;45778;51.142;3.732;2023-01-19T14:33:44;0.75;;;0.75;;
59922;SDS011;45778;51.142;3.732;2023-01-19T14:39:03;0.10;;;0.10;;
59922;SDS011;45778;51.142;3.732;2023-01-19T14:41:42;0.10;;;0.10;;
59922;SDS011;45778;51.142;3.732;2023-01-19T14:46:56;24.23;;;12.10;;
59922;SDS011;45778;51.142;3.732;2023-01-19T14:49:39;22.08;;;12.18;;
59922;SDS011;45778;51.142;3.732;2023-01-19T14:54:57;18.52;;;11.48;;
59922;SDS011;45778;51.142;3.732;2023-01-19T14:57:24;21.83;;;11.60;;
59922;SDS011;45778;51.142;3.732;2023-01-19T14:59:50;23.30;;;10.55;;
59922;SDS011;45778;51.142;3.732;2023-01-19T15:02:16;15.43;;;8.40;;
59922;SDS011;45778;51.142;3.732;2023-01-19T15:04:43;15.98;;;8.93;;
59922;SDS011;45778;51.142;3.732;2023-01-19T15:07:13;21.58;;;9.40;;
59922;SDS011;45778;51.142;3.732;2023-01-19T15:09:42;18.58;;;9.38;;
59922;SDS011;45778;51.142;3.732;2023-01-19T15:12:09;19.38;;;10.52;;
59922;SDS011;45778;51.142;3.732;2023-01-19T15:14:37;16.25;;;8.50;;
59922;SDS011;45778;51.142;3.732;2023-01-19T15:17:03;19.25;;;9.50;;
59922;SDS011;45778;51.142;3.732;2023-01-19T15:19:29;19.70;;;10.38;;
59922;SDS011;45778;51.142;3.732;2023-01-19T15:21:54;17.27;;;10.15;;
59922;SDS011;45778;51.142;3.732;2023-01-19T15:24:20;17.98;;;10.30;;
59922;SDS011;45778;51.142;3.732;2023-01-19T15:26:46;18.98;;;10.25;;
59922;SDS011;45778;51.142;3.732;2023-01-19T15:29:17;17.85;;;10.48;;
59922;SDS011;45778;51.142;3.732;2023-01-19T15:31:48;19.65;;;11.25;;
59922;SDS011;45778;51.142;3.732;2023-01-19T15:34:14;17.60;;;11.23;;
59922;SDS011;45778;51.142;3.732;2023-01-19T15:36:40;19.90;;;10.65;;
59922;SDS011;45778;51.142;3.732;2023-01-19T15:39:06;21.90;;;12.00;;
59922;SDS011;45778;51.142;3.732;2023-01-19T15:41:33;22.02;;;12.05;;
59922;SDS011;45778;51.142;3.732;2023-01-19T15:43:58;19.63;;;12.43;;
59922;SDS011;45778;51.142;3.732;2023-01-19T15:46:25;21.48;;;10.82;;
59922;SDS011;45778;51.142;3.732;2023-01-19T15:48:51;23.15;;;12.20;;
59922;SDS011;45778;51.142;3.732;2023-01-19T15:51:21;24.48;;;15.52;;
59922;SDS011;45778;51.142;3.732;2023-01-19T15:53:49;21.70;;;12.98;;
59922;SDS011;45778;51.142;3.732;2023-01-19T15:56:36;23.63;;;13.00;;
59922;SDS011;45778;51.142;3.732;2023-01-19T15:59:02;21.00;;;13.90;;
59922;SDS011;45778;51.142;3.732;2023-01-19T16:01:28;32.33;;;14.93;;
59922;SDS011;45778;51.142;3.732;2023-01-19T16:03:59;21.55;;;13.10;;
59922;SDS011;45778;51.142;3.732;2023-01-19T16:06:29;25.02;;;10.02;;
59922;SDS011;45778;51.142;3.732;2023-01-19T16:08:56;19.10;;;10.13;;
59922;SDS011;45778;51.142;3.732;2023-01-19T16:11:25;19.80;;;11.32;;
59922;SDS011;45778;51.142;3.732;2023-01-19T16:13:53;17.02;;;9.13;;
59922;SDS011;45778;51.142;3.732;2023-01-19T16:16:20;19.42;;;10.20;;
59922;SDS011;45778;51.142;3.732;2023-01-19T16:18:47;25.63;;;13.73;;
59922;SDS011;45778;51.142;3.732;2023-01-19T16:21:13;27.83;;;15.25;;
59922;SDS011;45778;51.142;3.732;2023-01-19T16:23:39;26.85;;;15.70;;
59922;SDS011;45778;51.142;3.732;2023-01-19T16:26:06;26.10;;;15.10;;
59922;SDS011;45778;51.142;3.732;2023-01-19T16:28:46;31.88;;;16.98;;
59922;SDS011;45778;51.142;3.732;2023-01-19T16:31:12;29.63;;;16.45;;
59922;SDS011;45778;51.142;3.732;2023-01-19T16:33:39;31.58;;;17.77;;